Time;durP1;ratioP1;P1;durP2;ratioP2;P2;SDS_P1;SDS_P2;PMS_P1;PMS_P2;Temp;Humidity;BMP_temperature;BMP_pressure;BME280_temperature;BME280_humidity;BME280_pressure;Samples;Min_cycle;Max_cycle;Signal;HPM_P1;HPM_P2
2021/07/27 00:02:18;;;;;;;18.63;8.27;;;;;;;19.05;72.77;100013.06;4833767;29;20077;-59
2021/07/27 00:04:44;;;;;;;18.48;7.93;;;;;;;19.03;73.10;100020.22;4836029;29;20041;-60
2021/07/27 00:07:09;;;;;;;15.68;8.25;;;;;;;19.00;73.16;100023.03;4834920;29;20066;-60
2021/07/27 00:09:35;;;;;;;19.48;8.25;;;;;;;18.98;73.39;100022.31;5322976;23;20371;-59
2021/07/27 00:12:01;;;;;;;15.63;7.95;;;;;;;18.94;73.45;100013.75;4838317;29;20552;-59
2021/07/27 00:14:26;;;;;;;20.33;8.55;;;;;;;18.94;73.61;100026.94;4838853;29;20049;-60
2021/07/27 00:16:52;;;;;;;21.13;8.93;;;;;;;18.92;73.88;100020.06;4838835;29;20052;-59
2021/07/27 00:22:21;;;;;;;22.35;8.60;;;;;;;18.87;74.29;100014.22;4897297;24;20508;-60
2021/07/27 00:24:46;;;;;;;15.52;7.68;;;;;;;18.85;74.65;100016.94;4797170;29;20125;-60
2021/07/27 00:27:12;;;;;;;18.23;7.97;;;;;;;18.83;74.79;100018.00;4794264;29;20591;-59
2021/07/27 00:29:37;;;;;;;21.83;8.73;;;;;;;18.80;74.95;100016.41;4797809;29;20104;-59
2021/07/27 00:32:03;;;;;;;22.13;8.65;;;;;;;18.77;75.10;100015.75;4798693;29;20192;-59
2021/07/27 00:34:29;;;;;;;25.60;8.50;;;;;;;18.75;75.16;100015.84;4801771;29;20081;-59
2021/07/27 00:36:55;;;;;;;23.15;9.05;;;;;;;18.73;75.30;100016.91;4802094;29;20099;-59
2021/07/27 00:39:20;;;;;;;22.55;8.77;;;;;;;18.68;75.48;100021.59;4802300;29;20597;-59
2021/07/27 00:41:46;;;;;;;25.98;9.02;;;;;;;18.67;75.54;100017.28;5266167;24;21848;-59
2021/07/27 00:44:12;;;;;;;18.05;8.38;;;;;;;18.65;75.70;100025.25;4802258;29;20046;-59
2021/07/27 00:46:37;;;;;;;25.42;9.55;;;;;;;18.61;76.03;100024.63;4802299;29;20047;-59
2021/07/27 00:49:03;;;;;;;24.70;9.73;;;;;;;18.59;76.21;100021.22;4794461;29;20069;-59
2021/07/27 00:51:29;;;;;;;18.75;9.05;;;;;;;18.58;76.46;100022.16;4794835;29;20107;-59
2021/07/27 00:53:55;;;;;;;24.70;9.13;;;;;;;18.56;76.82;100020.56;4802684;29;20043;-59
2021/07/27 00:56:21;;;;;;;29.20;9.90;;;;;;;18.55;76.70;100016.25;4801425;29;20430;-59
2021/07/27 00:58:47;;;;;;;23.73;10.23;;;;;;;18.53;76.64;100021.56;4802042;29;20046;-59
2021/07/27 01:01:13;;;;;;;25.23;10.10;;;;;;;18.51;76.84;100014.72;4791886;29;20427;-59
2021/07/27 01:03:40;;;;;;;25.83;10.13;;;;;;;18.48;77.09;100012.25;4784258;29;20047;-59
2021/07/27 01:06:05;;;;;;;30.33;9.80;;;;;;;18.46;77.02;100012.38;4784339;29;20607;-59
2021/07/27 01:08:32;;;;;;;25.30;10.60;;;;;;;18.44;77.22;100008.97;4784281;30;20134;-59
2021/07/27 01:10:58;;;;;;;23.00;10.35;;;;;;;18.42;77.48;100008.22;4769754;30;20047;-60
2021/07/27 01:13:23;;;;;;;25.13;10.13;;;;;;;18.41;77.73;100010.97;4798801;29;20054;-59
2021/07/27 01:15:49;;;;;;;21.00;9.80;;;;;;;18.39;77.95;100007.56;4805517;29;20058;-59
2021/07/27 01:18:21;;;;;;;23.23;8.95;;;;;;;18.37;78.18;100006.81;4806155;29;20107;-59
2021/07/27 01:39:44;;;;;;;29.65;12.05;;;;;;;18.25;78.83;100000.50;4805630;29;20055;-58
2021/07/27 01:42:14;;;;;;;26.58;11.18;;;;;;;18.24;79.11;100003.22;4803638;29;20059;-58
2021/07/27 01:44:44;;;;;;;41.45;13.43;;;;;;;18.25;79.29;100004.94;4805443;29;20050;-60
2021/07/27 01:47:19;;;;;;;35.97;12.82;;;;;;;18.21;79.46;100002.47;4805259;29;20138;-60
2021/07/27 01:49:46;;;;;;;43.67;14.70;;;;;;;18.24;79.51;100004.06;4803449;29;20042;-58
2021/07/27 01:52:25;;;;;;;47.58;15.07;;;;;;;18.25;79.41;100005.78;5210590;24;20041;31
2021/07/27 01:55:07;;;;;;;41.50;14.77;;;;;;;18.27;79.46;100006.50;4750846;30;20114;-58
2021/07/27 01:57:33;;;;;;;43.92;14.85;;;;;;;18.29;79.34;100001.16;4751738;30;20080;-59
2021/07/27 01:59:58;;;;;;;43.40;14.25;;;;;;;18.29;79.48;100002.00;4753933;30;20075;-59
2021/07/27 02:05:20;;;;;;;51.75;15.55;;;;;;;18.30;79.61;100002.84;4962312;24;20080;-59
2021/07/27 02:07:47;;;;;;;39.90;14.27;;;;;;;18.31;79.63;100009.81;4768678;30;20055;-61
2021/07/27 02:10:15;;;;;;;35.83;13.80;;;;;;;18.30;79.76;100008.97;4767707;30;20274;-59
2021/07/27 02:12:49;;;;;;;45.03;15.27;;;;;;;18.32;80.21;100008.88;4768786;30;20043;-59
2021/07/27 02:15:16;;;;;;;37.90;14.50;;;;;;;18.33;80.13;100013.19;4768977;30;20047;-60
2021/07/27 02:17:42;;;;;;;36.80;13.15;;;;;;;18.35;80.28;100011.31;4768858;30;20051;-59
2021/07/27 02:20:08;;;;;;;43.85;14.77;;;;;;;18.39;80.17;100005.78;4768874;30;20584;-61
2021/07/27 02:22:35;;;;;;;34.72;13.60;;;;;;;18.40;80.32;100012.75;4768001;30;20055;-60
2021/07/27 02:25:00;;;;;;;37.20;14.70;;;;;;;18.43;80.06;100009.91;4768724;30;20516;-62
2021/07/27 02:27:27;;;;;;;33.72;12.65;;;;;;;18.45;80.01;100007.19;4768901;30;20050;-61
2021/07/27 02:29:52;;;;;;;34.42;12.57;;;;;;;18.49;79.91;100011.31;4768834;30;20108;-60
2021/07/27 02:32:18;;;;;;;39.97;12.65;;;;;;;18.51;79.64;100018.19;4768976;30;20583;-59
2021/07/27 02:34:44;;;;;;;25.30;11.65;;;;;;;18.55;79.69;100008.34;5251018;24;20032;-59
2021/07/27 02:37:09;;;;;;;31.95;12.15;;;;;;;18.59;79.62;100012.47;4795476;29;20567;-59
2021/07/27 02:39:35;;;;;;;27.40;10.88;;;;;;;18.63;79.56;100015.78;4798196;29;20447;-59
2021/07/27 02:42:01;;;;;;;25.67;10.75;;;;;;;18.63;79.65;100009.53;4786746;29;20176;-58
2021/07/27 02:44:27;;;;;;;22.42;10.63;;;;;;;18.66;79.73;100015.56;4787096;29;20059;-60
2021/07/27 02:46:52;;;;;;;32.15;11.80;;;;;;;18.71;79.70;100013.50;4786214;29;20721;-59
2021/07/27 02:49:18;;;;;;;25.88;11.32;;;;;;;18.76;79.64;100014.06;4786355;29;20062;-60
2021/07/27 02:51:51;;;;;;;32.47;12.50;;;;;;;18.78;79.76;100015.66;4786012;29;20397;-59
2021/07/27 02:54:17;;;;;;;30.80;12.60;;;;;;;18.82;79.61;100011.91;4786103;29;20047;-59
2021/07/27 02:56:43;;;;;;;36.25;13.07;;;;;;;18.86;79.55;100015.16;4784985;30;20062;-60
2021/07/27 02:59:08;;;;;;;27.73;12.52;;;;;;;18.90;79.13;100021.94;4786185;29;20074;-60
2021/07/27 03:01:34;;;;;;;23.27;10.85;;;;;;;18.95;78.55;100018.06;4785794;29;20051;-60
2021/07/27 03:04:00;;;;;;;24.60;11.65;;;;;;;19.01;78.49;100016.81;4786027;29;20130;-60
2021/07/27 03:06:29;;;;;;;24.17;10.82;;;;;;;19.04;78.18;100014.03;4786116;29;20173;-59
2021/07/27 03:11:21;;;;;;;25.10;10.93;;;;;;;19.14;77.97;100017.75;4803275;29;20051;-60
2021/07/27 03:13:47;;;;;;;24.52;9.38;;;;;;;19.18;77.28;100018.41;4785995;29;20094;-59
2021/07/27 03:16:20;;;;;;;21.50;10.05;;;;;;;19.21;76.48;100019.03;4785859;29;20392;-60
2021/07/27 03:18:49;;;;;;;25.30;10.07;;;;;;;19.30;75.99;100018.47;4786223;29;20086;-58
2021/07/27 03:21:26;;;;;;;31.73;10.60;;;;;;;19.34;75.97;100025.22;4785778;30;20047;-58
2021/07/27 03:23:52;;;;;;;25.92;10.88;;;;;;;19.40;75.93;100030.09;4790556;29;20134;-59
2021/07/27 03:26:19;;;;;;;30.83;11.63;;;;;;;19.44;75.83;100021.06;4803526;29;20074;-59
2021/07/27 03:28:46;;;;;;;39.38;13.02;;;;;;;19.50;75.43;100018.97;4803739;29;20498;-59
2021/07/27 03:31:11;;;;;;;28.27;14.23;;;;;;;19.57;74.90;100022.91;4803471;29;20049;-60
2021/07/27 03:33:37;;;;;;;28.52;12.68;;;;;;;19.63;74.35;100017.19;4802820;29;20051;-59
2021/07/27 03:36:04;;;;;;;26.50;11.13;;;;;;;19.70;73.97;100015.84;4796364;29;20067;-59
2021/07/27 03:38:31;;;;;;;23.45;11.05;;;;;;;19.74;73.58;100014.69;4803185;29;20057;-59
2021/07/27 03:41:07;;;;;;;20.27;10.32;;;;;;;19.77;72.95;100001.31;4803390;29;20053;-59
2021/07/27 03:43:33;;;;;;;33.47;11.50;;;;;;;19.84;72.74;100008.72;4803357;29;20047;-59
2021/07/27 03:45:59;;;;;;;27.35;11.57;;;;;;;19.94;72.41;100008.09;4803517;29;20047;-60
2021/07/27 03:48:25;;;;;;;32.38;11.63;;;;;;;20.01;72.23;100012.84;4791613;29;20066;-60
2021/07/27 03:50:50;;;;;;;29.60;11.77;;;;;;;20.09;71.45;100018.47;4785176;29;20086;-60
2021/07/27 03:53:17;;;;;;;26.40;11.55;;;;;;;20.14;70.89;100020.78;4784947;29;20231;-60
2021/07/27 03:55:43;;;;;;;25.65;11.50;;;;;;;20.18;70.20;100004.63;4784205;30;20051;-60
2021/07/27 03:58:09;;;;;;;22.17;9.80;;;;;;;20.28;69.25;100010.97;4785110;29;20086;-61
2021/07/27 04:00:35;;;;;;;22.08;9.07;;;;;;;20.35;67.89;100005.31;4794885;29;20078;-60
2021/07/27 04:03:01;;;;;;;17.38;9.35;;;;;;;20.42;67.38;100009.19;4785315;29;20553;-61
2021/07/27 04:05:26;;;;;;;21.67;9.15;;;;;;;20.46;66.13;100011.53;4784935;29;20132;-60
2021/07/27 04:07:52;;;;;;;28.00;9.98;;;;;;;20.52;65.21;100008.44;4784659;29;20054;-60
2021/07/27 04:10:18;;;;;;;16.20;6.53;;;;;;;20.60;64.36;100002.63;4790315;29;20050;-60
2021/07/27 04:12:43;;;;;;;18.58;7.28;;;;;;;20.67;63.42;100006.53;4789593;29;20050;-60
2021/07/27 04:18:02;;;;;;;14.80;7.88;;;;;;;20.80;62.32;99998.56;4771227;29;20773;-57
2021/07/27 04:20:28;;;;;;;16.45;7.28;;;;;;;20.86;61.85;99993.69;4771989;29;20043;-59
2021/07/27 04:22:53;;;;;;;11.65;6.05;;;;;;;20.92;61.34;100000.34;4777492;29;20176;-59
2021/07/27 04:25:19;;;;;;;12.38;6.28;;;;;;;20.97;60.94;99992.91;4774483;29;20574;-58
2021/07/27 04:27:44;;;;;;;17.25;5.75;;;;;;;21.04;60.36;99999.47;4774945;29;20051;-61
2021/07/27 04:30:10;;;;;;;14.77;6.68;;;;;;;21.09;59.92;99987.56;4780288;29;20043;-59
2021/07/27 04:32:36;;;;;;;15.35;6.38;;;;;;;21.16;59.53;99989.78;4781880;29;20409;-59
2021/07/27 04:35:02;;;;;;;16.50;6.55;;;;;;;21.22;59.64;99990.19;4780439;29;20105;-60
2021/07/27 04:37:28;;;;;;;23.63;7.30;;;;;;;21.31;59.99;99981.59;4777109;29;20104;-59
2021/07/27 04:39:54;;;;;;;11.02;6.68;;;;;;;21.37;59.68;99985.56;4777583;29;20039;-60
2021/07/27 04:42:19;;;;;;;16.80;7.03;;;;;;;21.46;59.22;99993.66;4780047;29;20065;-60
2021/07/27 04:44:45;;;;;;;13.90;6.82;;;;;;;21.52;59.44;99984.44;4781277;29;20039;-60
2021/07/27 04:47:11;;;;;;;14.25;6.03;;;;;;;21.60;59.58;99978.59;4783425;29;20047;-59
2021/07/27 04:49:36;;;;;;;21.45;7.90;;;;;;;21.68;59.98;99978.84;4772642;29;20055;-60
2021/07/27 04:52:03;;;;;;;21.50;7.65;;;;;;;21.76;60.17;99982.59;4781550;29;20143;-58
2021/07/27 04:54:31;;;;;;;21.17;6.65;;;;;;;21.84;59.92;99979.38;4784350;29;20447;-60
2021/07/27 04:56:56;;;;;;;16.52;7.22;;;;;;;21.90;59.49;99969.16;4772916;29;20110;-59
2021/07/27 04:59:22;;;;;;;19.50;8.25;;;;;;;21.98;60.00;99967.78;4777509;29;20051;-60
2021/07/27 05:01:48;;;;;;;13.80;5.60;;;;;;;22.05;59.13;99963.66;4783441;29;20043;-60
2021/07/27 05:04:13;;;;;;;7.22;2.83;;;;;;;22.12;55.88;99963.09;4773908;29;20122;-60
2021/07/27 05:06:40;;;;;;;4.35;2.40;;;;;;;22.21;53.18;99962.38;4783101;29;20482;-61
2021/07/27 05:09:06;;;;;;;6.78;3.90;;;;;;;22.28;53.43;99963.59;4777459;29;20055;-59
2021/07/27 05:11:31;;;;;;;13.15;5.50;;;;;;;22.35;54.36;99962.13;4777136;29;20047;-58
2021/07/27 05:13:57;;;;;;;11.93;4.90;;;;;;;22.39;54.97;99968.88;4775529;29;20054;-60
2021/07/27 05:16:23;;;;;;;15.25;4.88;;;;;;;22.45;55.05;99950.81;5243290;24;20059;-61
2021/07/27 05:18:49;;;;;;;10.80;4.60;;;;;;;22.56;53.67;99967.53;4784048;29;20046;-61
2021/07/27 05:21:16;;;;;;;8.05;4.10;;;;;;;22.65;52.88;99961.53;4782402;29;20147;-60
2021/07/27 05:23:43;;;;;;;10.25;4.30;;;;;;;22.72;52.90;99965.38;4783822;29;20055;-59
2021/07/27 05:26:09;;;;;;;12.38;4.70;;;;;;;22.80;52.40;99959.47;4781751;29;20051;-61
2021/07/27 05:28:35;;;;;;;15.77;6.00;;;;;;;22.91;52.39;99967.41;4783681;29;20485;-61
2021/07/27 05:31:04;;;;;;;18.50;9.18;;;;;;;23.01;52.54;99965.69;4783254;29;20519;-60
2021/07/27 05:33:30;;;;;;;10.07;4.40;;;;;;;23.08;52.59;99964.22;4781571;29;20051;-60
2021/07/27 05:35:56;;;;;;;13.60;5.53;;;;;;;23.20;52.05;99971.19;4783190;29;20515;-61
2021/07/27 05:38:21;;;;;;;14.50;4.90;;;;;;;23.32;51.29;99963.19;4782422;29;20047;-60
2021/07/27 05:40:50;;;;;;;12.60;5.13;;;;;;;23.41;50.88;99971.22;4783794;29;20504;-60
2021/07/27 05:43:16;;;;;;;10.63;5.20;;;;;;;23.51;50.48;99971.31;4781853;29;20047;-60
2021/07/27 05:45:42;;;;;;;12.68;5.22;;;;;;;23.61;50.43;99967.78;4782625;29;20093;-59
2021/07/27 05:48:07;;;;;;;8.02;4.35;;;;;;;23.72;49.41;99961.56;4783606;29;20158;-59
2021/07/27 05:50:33;;;;;;;35.97;8.13;;;;;;;23.84;49.63;99963.19;4782289;29;20054;-59
2021/07/27 05:52:59;;;;;;;19.67;8.10;;;;;;;23.94;48.56;99965.91;4782683;29;20051;-59
2021/07/27 05:55:25;;;;;;;15.10;6.68;;;;;;;24.02;48.77;99964.25;4781948;29;20523;-60
2021/07/27 05:57:51;;;;;;;13.02;5.55;;;;;;;24.14;47.69;99966.84;4781768;29;20043;-59
2021/07/27 06:00:17;;;;;;;20.67;4.93;;;;;;;24.22;46.33;99965.25;4781316;29;20043;-58
2021/07/27 06:02:43;;;;;;;26.17;7.00;;;;;;;24.32;46.54;99958.19;4782212;29;20046;-60
2021/07/27 06:05:09;;;;;;;21.00;5.18;;;;;;;24.44;46.58;99964.25;4780346;29;20070;-60
2021/07/27 06:07:34;;;;;;;8.98;4.13;;;;;;;24.49;45.03;99959.38;5234056;24;20059;-60
2021/07/27 06:10:00;;;;;;;9.32;4.45;;;;;;;24.63;44.30;99964.31;4786235;29;20404;-60
2021/07/27 06:12:26;;;;;;;12.40;5.35;;;;;;;24.77;44.51;99960.41;4786656;29;20071;-60
2021/07/27 06:14:51;;;;;;;11.13;5.00;;;;;;;24.93;44.44;99957.25;4786919;29;20498;-60
2021/07/27 06:17:17;;;;;;;13.25;4.38;;;;;;;25.07;44.44;99964.88;4782263;29;20043;-58
2021/07/27 06:19:43;;;;;;;12.40;4.78;;;;;;;25.20;43.19;99955.63;4768902;30;20606;-59
2021/07/27 06:22:08;;;;;;;31.90;4.78;;;;;;;25.35;41.62;99961.38;4768719;30;20190;-59
2021/07/27 06:24:34;;;;;;;59.80;7.68;;;;;;;25.47;40.65;99960.25;4768655;30;20484;-59
2021/07/27 06:27:00;;;;;;;26.38;4.65;;;;;;;25.65;39.79;99968.38;4768755;30;20054;-60
2021/07/27 06:29:25;;;;;;;116.88;10.57;;;;;;;25.83;39.21;99964.03;4768775;30;20146;-61
2021/07/27 06:31:54;;;;;;;5.88;2.90;;;;;;;26.15;38.87;99961.84;4768235;30;20150;-61
2021/07/27 06:34:19;;;;;;;8.73;2.70;;;;;;;26.52;37.23;99961.03;4766491;30;20142;-61
2021/07/27 06:36:45;;;;;;;6.88;3.88;;;;;;;27.02;37.09;99964.13;4767883;30;20043;-63
2021/07/27 06:39:34;;;;;;;12.20;3.53;;;;;;;27.74;34.94;99968.53;5040689;24;20070;-61
2021/07/27 06:42:00;;;;;;;6.70;2.22;;;;;;;28.46;33.47;99968.16;4789146;29;20473;-61
2021/07/27 06:44:25;;;;;;;4.80;2.65;;;;;;;29.40;32.45;99967.97;4797603;29;20059;-60
2021/07/27 06:49:47;;;;;;;4.88;2.17;;;;;;;31.31;29.11;99975.84;4976421;24;20059;-61
2021/07/27 06:52:12;;;;;;;3.70;2.00;;;;;;;32.26;27.38;99979.75;4785022;29;20526;-60
2021/07/27 06:54:38;;;;;;;5.38;2.28;;;;;;;33.19;26.34;99968.34;4785432;29;20507;-63
2021/07/27 06:57:04;;;;;;;4.32;3.03;;;;;;;34.13;25.47;99967.09;4786937;29;20544;-62
2021/07/27 06:59:29;;;;;;;4.85;4.10;;;;;;;34.96;24.63;99979.66;4787168;29;20051;-59
2021/07/27 07:01:55;;;;;;;5.38;3.90;;;;;;;35.88;23.35;99973.56;4787348;29;20469;-60
2021/07/27 07:04:20;;;;;;;5.72;2.85;;;;;;;36.69;21.87;99974.06;4787180;29;20054;-60
2021/07/27 07:06:46;;;;;;;5.07;2.70;;;;;;;37.14;21.23;99966.78;4786556;29;20518;-58
2021/07/27 07:09:12;;;;;;;12.05;3.13;;;;;;;37.78;20.72;99965.72;5243501;24;20178;-59
2021/07/27 07:11:37;;;;;;;5.70;3.15;;;;;;;38.32;20.00;99971.22;4775500;29;20058;-58
2021/07/27 07:14:03;;;;;;;6.40;3.35;;;;;;;38.94;18.97;99961.94;4773808;29;20036;-59
2021/07/27 07:16:28;;;;;;;15.45;2.88;;;;;;;39.63;18.31;99968.66;4772146;29;20051;-66
2021/07/27 07:18:54;;;;;;;7.90;3.20;;;;;;;40.25;18.05;99973.72;4776955;29;20043;-61
2021/07/27 07:21:20;;;;;;;5.28;3.17;;;;;;;40.75;17.75;99969.38;4775273;29;20089;-59
2021/07/27 07:23:46;;;;;;;6.70;2.83;;;;;;;41.06;16.33;99965.34;4778272;29;20105;-59
2021/07/27 07:26:11;;;;;;;6.93;3.08;;;;;;;41.34;16.36;99956.31;4780069;29;20056;-59
2021/07/27 07:28:38;;;;;;;6.78;3.10;;;;;;;41.58;16.40;99967.94;4776848;29;20507;-60
2021/07/27 07:31:06;;;;;;;8.65;3.22;;;;;;;42.06;16.28;99961.88;4775069;29;20043;-59
2021/07/27 07:33:31;;;;;;;;;;;;;;;42.37;16.06;99966.72;4776498;29;20047;-59
2021/07/27 07:35:57;;;;;;;7.25;3.42;;;;;;;42.81;15.59;99967.56;4771244;29;19989;-60
2021/07/27 07:38:23;;;;;;;5.35;3.58;;;;;;;43.26;15.29;99959.00;4773765;29;20051;-59
2021/07/27 07:40:49;;;;;;;10.13;3.40;;;;;;;43.45;14.52;99959.44;4775166;29;20050;-60
2021/07/27 07:43:14;;;;;;;5.90;3.13;;;;;;;43.46;14.38;99961.09;4776341;29;20047;-60
2021/07/27 07:45:40;;;;;;;3.88;3.05;;;;;;;43.29;13.87;99955.75;4774992;29;20039;-60
2021/07/27 07:48:06;;;;;;;7.15;3.30;;;;;;;43.13;14.08;99956.69;4780467;30;20046;-59
2021/07/27 07:50:32;;;;;;;6.43;3.10;;;;;;;43.43;14.52;99959.72;4774194;30;20435;-58
2021/07/27 07:53:01;;;;;;;4.82;3.20;;;;;;;43.48;13.90;99959.78;4776776;29;20047;-58
2021/07/27 07:55:28;;;;;;;10.85;3.97;;;;;;;43.73;14.05;99958.31;4774495;29;20043;-59
2021/07/27 07:57:54;;;;;;;5.90;3.00;;;;;;;43.66;14.32;99953.06;4774689;29;20060;-61
2021/07/27 08:00:19;;;;;;;5.85;3.42;;;;;;;44.14;14.22;99956.69;5239500;24;20405;-59
2021/07/27 08:02:45;;;;;;;3.97;2.90;;;;;;;44.47;14.08;99945.38;4776111;29;20048;-59
2021/07/27 08:05:11;;;;;;;8.52;3.78;;;;;;;44.89;13.62;99949.91;4775148;29;20537;-60
2021/07/27 08:07:36;;;;;;;7.88;4.10;;;;;;;45.08;13.81;99942.81;4776506;30;20463;-58
2021/07/27 08:10:02;;;;;;;9.15;4.78;;;;;;;45.40;13.42;99945.31;4776092;29;20050;-59
2021/07/27 08:12:28;;;;;;;10.40;4.20;;;;;;;45.24;13.18;99944.50;4772742;29;20580;-59
2021/07/27 08:14:54;;;;;;;7.32;4.22;;;;;;;45.21;13.18;99945.06;4771352;29;20051;-60
2021/07/27 08:17:19;;;;;;;6.90;3.40;;;;;;;44.72;13.38;99944.66;4772092;29;20397;-59
2021/07/27 08:19:45;;;;;;;4.30;3.50;;;;;;;44.84;13.28;99942.50;4771916;29;20153;-59
2021/07/27 08:22:11;;;;;;;5.20;2.97;;;;;;;44.79;13.37;99941.66;5232160;24;20063;-60
2021/07/27 08:24:36;;;;;;;6.80;3.65;;;;;;;45.04;13.54;99936.25;4785201;29;20051;-59
2021/07/27 08:27:08;;;;;;;6.38;3.83;;;;;;;45.24;13.29;99929.94;4785013;29;20047;-60
2021/07/27 08:29:37;;;;;;;4.70;3.63;;;;;;;45.84;12.63;99929.97;4783157;30;20051;-58
2021/07/27 08:32:10;;;;;;;8.68;4.63;;;;;;;46.34;12.58;99925.41;4776938;29;20047;-59
2021/07/27 08:34:41;;;;;;;4.53;3.30;;;;;;;46.23;12.13;99938.38;4765577;30;20047;-59
2021/07/27 08:37:07;;;;;;;5.18;3.58;;;;;;;45.94;12.67;99940.09;4757283;30;20055;-59
2021/07/27 08:39:33;;;;;;;8.27;4.75;;;;;;;46.43;12.36;99931.97;4757982;30;20048;-59
2021/07/27 08:42:01;;;;;;;8.10;4.10;;;;;;;46.94;12.01;99929.81;4758446;30;20051;-58
2021/07/27 08:44:34;;;;;;;7.00;3.60;;;;;;;46.80;12.03;99928.75;4761375;30;20614;-58
2021/07/27 08:47:07;;;;;;;14.35;4.45;;;;;;;46.83;11.92;99930.13;4765501;30;20047;-59
2021/07/27 08:49:33;;;;;;;6.18;4.30;;;;;;;46.27;11.86;99927.66;4767990;30;20055;-59
2021/07/27 08:51:59;;;;;;;14.60;6.20;;;;;;;46.71;11.85;99920.28;4767418;30;20113;-59
2021/07/27 08:54:26;;;;;;;13.07;6.37;;;;;;;47.24;11.73;99922.41;4762538;30;20138;-59
2021/07/27 08:56:53;;;;;;;5.40;4.10;;;;;;;47.16;12.09;99921.91;4765441;30;20074;-59
2021/07/27 08:59:19;;;;;;;5.57;4.53;;;;;;;47.03;11.80;99924.50;4766324;30;20105;-60
2021/07/27 09:01:46;;;;;;;8.40;3.47;;;;;;;47.19;11.51;99915.03;4763144;30;20050;-59
2021/07/27 09:04:12;;;;;;;6.40;4.60;;;;;;;47.67;11.44;99915.19;4769948;30;20139;-60
2021/07/27 09:06:37;;;;;;;10.25;6.43;;;;;;;48.07;11.10;99914.78;4766007;30;20048;-59
2021/07/27 09:09:08;;;;;;;10.20;6.03;;;;;;;48.31;11.00;99926.59;4761962;30;20055;-58
2021/07/27 09:14:29;;;;;;;9.60;5.70;;;;;;;48.13;10.92;99921.88;4734984;27;20087;-60
2021/07/27 09:16:58;;;;;;;16.97;13.17;;;;;;;48.71;10.73;99918.94;4762551;30;20535;-59
2021/07/27 09:19:24;;;;;;;14.52;6.10;;;;;;;48.90;10.23;99927.22;4761267;30;20054;-60
2021/07/27 09:21:51;;;;;;;12.80;6.72;;;;;;;48.66;10.39;99924.50;4762377;30;20048;-60
2021/07/27 09:24:19;;;;;;;25.03;5.60;;;;;;;48.75;10.34;99919.97;4761148;30;20056;-59
2021/07/27 09:26:56;;;;;;;7.35;4.60;;;;;;;48.61;10.38;99917.13;4760837;30;20047;-60
2021/07/27 09:29:23;;;;;;;5.95;4.45;;;;;;;48.69;10.31;99918.38;4755614;30;20140;-61
2021/07/27 09:31:52;;;;;;;5.05;4.65;;;;;;;48.75;10.06;99911.69;4761742;30;20048;-60
2021/07/27 09:34:19;;;;;;;6.40;4.90;;;;;;;48.69;10.54;99910.91;5229706;24;20059;-60
2021/07/27 09:36:45;;;;;;;5.47;4.72;;;;;;;48.46;10.59;99908.25;4785271;30;20139;-61
2021/07/27 09:39:11;;;;;;;5.47;4.87;;;;;;;48.39;10.71;99903.91;4786378;29;20182;-60
2021/07/27 09:41:36;;;;;;;6.53;4.88;;;;;;;48.10;11.05;99894.88;4785554;30;20127;-60
2021/07/27 09:44:06;;;;;;;5.72;4.45;;;;;;;48.14;10.59;99887.66;4778975;29;20051;-60
2021/07/27 09:46:32;;;;;;;6.60;5.05;;;;;;;48.15;10.48;99882.97;4769069;30;20118;-59
2021/07/27 09:49:00;;;;;;;7.45;5.57;;;;;;;47.59;10.92;99878.84;4768819;30;20542;-59
2021/07/27 09:51:28;;;;;;;7.88;7.18;;;;;;;48.11;11.01;99876.38;4768518;30;20127;-59
2021/07/27 09:54:11;;;;;;;15.95;7.85;;;;;;;48.61;10.70;99874.91;5140166;24;20078;31
2021/07/27 09:56:37;;;;;;;7.55;6.80;;;;;;;48.91;10.83;99877.22;4777901;30;20538;-59
2021/07/27 09:59:02;;;;;;;20.15;7.53;;;;;;;49.23;10.17;99877.25;4764748;30;20043;-57
2021/07/27 10:01:29;;;;;;;9.23;5.40;;;;;;;49.38;9.98;99867.84;4764265;30;20075;-59
2021/07/27 10:03:59;;;;;;;13.77;4.10;;;;;;;47.51;10.76;99864.88;4762304;30;20047;-59
2021/07/27 10:06:26;;;;;;;12.00;4.15;;;;;;;45.39;12.21;99861.25;4758086;30;20046;-58
2021/07/27 10:09:00;;;;;;;9.85;5.35;;;;;;;45.10;12.85;99861.84;4759179;30;20139;-59
2021/07/27 10:11:36;;;;;;;12.00;5.35;;;;;;;46.44;11.97;99864.00;4758091;29;20051;-57
2021/07/27 10:14:07;;;;;;;6.10;5.50;;;;;;;47.04;11.69;99855.38;4758109;30;20579;-60
2021/07/27 10:16:33;;;;;;;7.35;5.43;;;;;;;47.75;11.04;99853.91;4758552;30;20401;-59
2021/07/27 10:19:13;;;;;;;7.78;4.95;;;;;;;47.86;10.42;99855.41;4770846;30;20114;-57
2021/07/27 10:21:39;;;;;;;10.05;5.97;;;;;;;47.86;10.67;99858.19;4756929;30;20060;-59
2021/07/27 10:27:05;;;;;;;6.82;5.18;;;;;;;48.08;10.50;99864.00;5054757;24;20055;-60
2021/07/27 10:29:31;;;;;;;6.13;5.57;;;;;;;48.39;10.35;99858.94;4777847;30;20087;-59
2021/07/27 10:31:59;;;;;;;9.67;5.50;;;;;;;48.67;9.95;99846.09;4782765;30;20515;-60
2021/07/27 10:34:32;;;;;;;67.05;13.82;;;;;;;48.92;10.29;99855.94;4782670;30;20530;-63
2021/07/27 10:37:35;;;;;;;25.40;7.78;;;;;;;49.14;10.48;99851.44;4776956;30;20100;-59
2021/07/27 10:40:02;;;;;;;20.45;15.73;;;;;;;49.31;10.13;99839.78;4772398;30;20063;-60
2021/07/27 10:42:38;;;;;;;8.02;7.20;;;;;;;49.36;10.01;99842.47;4779870;29;20043;-59
2021/07/27 10:45:16;;;;;;;8.38;5.47;;;;;;;48.85;9.46;99836.16;4778036;29;20100;-61
2021/07/27 10:47:48;;;;;;;7.65;5.00;;;;;;;48.52;9.95;99835.28;4777957;30;20052;-60
2021/07/27 10:50:13;;;;;;;5.72;5.10;;;;;;;48.87;9.71;99828.41;4772667;30;20132;-59
2021/07/27 10:52:42;;;;;;;7.87;5.30;;;;;;;48.70;9.25;99835.28;4778800;29;20116;-61
2021/07/27 10:55:08;;;;;;;5.40;4.90;;;;;;;47.85;10.34;99824.28;4775657;29;20043;-62
2021/07/27 10:57:38;;;;;;;8.20;5.72;;;;;;;48.18;10.35;99816.97;4770918;30;20396;-61
2021/07/27 11:00:07;;;;;;;5.70;5.25;;;;;;;48.52;10.14;99814.03;4775072;30;20522;-59
2021/07/27 11:02:33;;;;;;;6.95;4.88;;;;;;;48.66;9.87;99816.84;4785721;30;20055;-61
2021/07/27 11:04:58;;;;;;;5.93;5.20;;;;;;;48.84;9.37;99809.69;4784148;30;20054;-61
2021/07/27 11:07:26;;;;;;;5.43;5.03;;;;;;;48.58;9.68;99806.47;5254963;24;20422;-61
2021/07/27 11:09:56;;;;;;;21.85;6.22;;;;;;;48.89;9.63;99795.78;4804186;29;20055;-61
2021/07/27 11:12:35;;;;;;;6.35;5.47;;;;;;;48.98;10.25;99800.31;4804794;29;20057;-61
2021/07/27 11:15:21;;;;;;;5.55;5.05;;;;;;;48.93;9.77;99800.41;4800225;29;20164;-60
2021/07/27 11:17:51;;;;;;;57.90;7.90;;;;;;;48.59;10.34;99797.91;4790336;29;20497;-61
2021/07/27 11:20:27;;;;;;;7.13;5.22;;;;;;;49.11;10.07;99798.72;4801731;29;20074;-60
2021/07/27 11:22:56;;;;;;;6.05;5.45;;;;;;;49.70;9.90;99805.34;4793122;29;20129;-61
2021/07/27 11:25:23;;;;;;;6.75;6.10;;;;;;;49.71;9.59;99793.16;4797632;29;20051;-60
2021/07/27 11:27:51;;;;;;;8.85;5.90;;;;;;;49.89;9.39;99790.28;4794450;29;20050;-63
2021/07/27 11:30:18;;;;;;;9.05;6.65;;;;;;;49.85;9.42;99786.50;4797087;29;20392;-61
2021/07/27 11:32:49;;;;;;;22.17;6.53;;;;;;;49.97;9.14;99781.28;4799917;29;20519;-61
2021/07/27 11:35:20;;;;;;;8.50;5.75;;;;;;;50.08;9.77;99789.34;4798306;29;20133;-62
2021/07/27 11:37:59;;;;;;;7.97;5.82;;;;;;;49.61;9.08;99783.13;4794810;29;20130;-60
2021/07/27 11:40:26;;;;;;;6.32;5.70;;;;;;;48.90;9.49;99778.91;4799373;29;20201;-60
2021/07/27 11:43:06;;;;;;;10.57;4.87;;;;;;;48.72;9.89;99772.31;4797886;29;20108;-61
2021/07/27 11:45:37;;;;;;;5.68;4.97;;;;;;;48.25;9.91;99767.78;4795908;29;20050;-60
2021/07/27 11:48:04;;;;;;;7.18;6.07;;;;;;;48.54;9.70;99764.03;4797358;29;20137;-61
2021/07/27 11:50:32;;;;;;;5.72;5.05;;;;;;;48.22;9.50;99762.00;4798857;29;20450;-61
2021/07/27 11:53:03;;;;;;;5.82;4.63;;;;;;;47.21;10.21;99754.97;4796269;29;20074;-59
2021/07/27 11:55:35;;;;;;;4.93;4.20;;;;;;;46.55;10.66;99752.81;4795961;29;20047;-63
2021/07/27 11:58:02;;;;;;;5.15;4.63;;;;;;;46.32;10.64;99746.88;4795963;29;20154;-61
2021/07/27 12:00:28;;;;;;;7.90;4.90;;;;;;;46.91;10.71;99745.06;4797759;29;20506;-60
2021/07/27 12:02:54;;;;;;;5.05;4.53;;;;;;;47.50;10.28;99737.31;4796984;29;20043;-60
2021/07/27 12:05:20;;;;;;;5.63;4.53;;;;;;;47.84;10.12;99750.16;4795984;29;20054;-62